sensor_id;sensor_type;location;lat;lon;timestamp;P1;P2;P0
42002;PMS7003;27693;50.506;30.832;2023-03-23T00:00:24;65.20;49.50;33.20
42002;PMS7003;27693;50.506;30.832;2023-03-23T00:01:27;60.10;47.30;31.60
42002;PMS7003;27693;50.506;30.832;2023-03-23T00:02:32;54.80;45.00;30.70
42002;PMS7003;27693;50.506;30.832;2023-03-23T00:03:40;62.50;48.30;32.10
42002;PMS7003;27693;50.506;30.832;2023-03-23T00:04:39;61.70;48.10;32.60
42002;PMS7003;27693;50.506;30.832;2023-03-23T00:05:43;59.60;47.90;32.00
42002;PMS7003;27693;50.506;30.832;2023-03-23T00:06:47;61.70;46.10;30.50
42002;PMS7003;27693;50.506;30.832;2023-03-23T00:07:50;64.40;49.50;32.80
42002;PMS7003;27693;50.506;30.832;2023-03-23T00:08:54;62.40;48.00;31.50
42002;PMS7003;27693;50.506;30.832;2023-03-23T00:09:58;60.80;46.60;30.70
42002;PMS7003;27693;50.506;30.832;2023-03-23T00:11:02;61.60;48.40;31.90
42002;PMS7003;27693;50.506;30.832;2023-03-23T00:12:04;61.44;48.22;32.22
42002;PMS7003;27693;50.506;30.832;2023-03-23T00:13:06;60.70;46.60;30.80
42002;PMS7003;27693;50.506;30.832;2023-03-23T00:14:09;63.80;50.00;33.50
42002;PMS7003;27693;50.506;30.832;2023-03-23T00:15:14;65.00;49.90;32.70
42002;PMS7003;27693;50.506;30.832;2023-03-23T00:16:21;51.00;39.10;27.40
42002;PMS7003;27693;50.506;30.832;2023-03-23T00:17:27;62.50;49.20;32.70
42002;PMS7003;27693;50.506;30.832;2023-03-23T00:18:30;61.36;47.91;32.00
42002;PMS7003;27693;50.506;30.832;2023-03-23T00:19:31;61.78;47.00;31.89
42002;PMS7003;27693;50.506;30.832;2023-03-23T00:20:33;61.89;46.22;30.67
42002;PMS7003;27693;50.506;30.832;2023-03-23T00:21:37;65.40;49.00;31.80
42002;PMS7003;27693;50.506;30.832;2023-03-23T00:22:40;65.60;50.00;33.00
42002;PMS7003;27693;50.506;30.832;2023-03-23T00:23:43;60.09;47.18;31.00
42002;PMS7003;27693;50.506;30.832;2023-03-23T00:24:46;63.80;48.90;32.90
42002;PMS7003;27693;50.506;30.832;2023-03-23T00:25:50;63.10;48.60;31.90
42002;PMS7003;27693;50.506;30.832;2023-03-23T00:27:00;66.00;50.30;33.90
42002;PMS7003;27693;50.506;30.832;2023-03-23T00:28:02;65.11;49.89;33.89
42002;PMS7003;27693;50.506;30.832;2023-03-23T00:29:06;61.10;47.50;30.40
42002;PMS7003;27693;50.506;30.832;2023-03-23T00:30:11;66.30;51.00;32.20
42002;PMS7003;27693;50.506;30.832;2023-03-23T00:31:13;67.11;50.22;33.67
42002;PMS7003;27693;50.506;30.832;2023-03-23T00:32:14;64.11;49.33;32.78
42002;PMS7003;27693;50.506;30.832;2023-03-23T00:33:17;61.90;47.50;32.30
42002;PMS7003;27693;50.506;30.832;2023-03-23T00:34:20;69.22;51.56;33.33
42002;PMS7003;27693;50.506;30.832;2023-03-23T00:35:23;65.90;50.00;33.40
42002;PMS7003;27693;50.506;30.832;2023-03-23T00:36:25;66.00;50.78;33.78
42002;PMS7003;27693;50.506;30.832;2023-03-23T00:37:27;62.30;46.90;30.60
42002;PMS7003;27693;50.506;30.832;2023-03-23T00:38:29;62.44;47.89;30.67
42002;PMS7003;27693;50.506;30.832;2023-03-23T00:39:31;62.22;48.78;31.00
42002;PMS7003;27693;50.506;30.832;2023-03-23T00:40:33;59.78;46.33;28.67
42002;PMS7003;27693;50.506;30.832;2023-03-23T00:41:36;53.70;41.10;26.80
42002;PMS7003;27693;50.506;30.832;2023-03-23T00:42:39;63.30;48.80;32.30
42002;PMS7003;27693;50.506;30.832;2023-03-23T00:43:41;59.89;47.00;31.33
42002;PMS7003;27693;50.506;30.832;2023-03-23T00:44:43;58.78;46.11;29.78
42002;PMS7003;27693;50.506;30.832;2023-03-23T00:45:45;60.22;47.00;31.33
42002;PMS7003;27693;50.506;30.832;2023-03-23T00:46:52;61.70;48.20;32.60
42002;PMS7003;27693;50.506;30.832;2023-03-23T00:47:56;62.00;48.60;32.10
42002;PMS7003;27693;50.506;30.832;2023-03-23T00:49:00;62.20;47.50;31.10
42002;PMS7003;27693;50.506;30.832;2023-03-23T00:50:02;59.67;46.44;31.56
42002;PMS7003;27693;50.506;30.832;2023-03-23T00:51:06;59.80;47.00;31.00
42002;PMS7003;27693;50.506;30.832;2023-03-23T00:52:10;58.70;45.70;30.70
42002;PMS7003;27693;50.506;30.832;2023-03-23T00:53:13;61.90;47.90;31.30
42002;PMS7003;27693;50.506;30.832;2023-03-23T00:54:16;59.70;46.50;31.30
42002;PMS7003;27693;50.506;30.832;2023-03-23T00:55:18;60.89;47.44;32.33
42002;PMS7003;27693;50.506;30.832;2023-03-23T00:56:20;58.90;46.00;31.50
42002;PMS7003;27693;50.506;30.832;2023-03-23T00:57:22;60.22;47.33;32.33
42002;PMS7003;27693;50.506;30.832;2023-03-23T00:58:25;62.20;48.40;31.60
42002;PMS7003;27693;50.506;30.832;2023-03-23T00:59:27;60.89;45.56;30.67
42002;PMS7003;27693;50.506;30.832;2023-03-23T01:00:30;58.00;46.30;31.30
42002;PMS7003;27693;50.506;30.832;2023-03-23T01:01:32;60.10;47.00;31.40
42002;PMS7003;27693;50.506;30.832;2023-03-23T01:02:35;60.00;47.60;31.40
42002;PMS7003;27693;50.506;30.832;2023-03-23T01:03:38;59.20;45.70;30.90
42002;PMS7003;27693;50.506;30.832;2023-03-23T01:04:40;63.11;46.78;30.78
42002;PMS7003;27693;50.506;30.832;2023-03-23T01:05:44;57.40;45.30;30.10
42002;PMS7003;27693;50.506;30.832;2023-03-23T01:06:49;58.10;46.00;30.50
42002;PMS7003;27693;50.506;30.832;2023-03-23T01:07:53;57.20;45.30;30.70
42002;PMS7003;27693;50.506;30.832;2023-03-23T01:08:54;51.44;40.89;26.56
42002;PMS7003;27693;50.506;30.832;2023-03-23T01:09:59;58.40;44.30;29.20
42002;PMS7003;27693;50.506;30.832;2023-03-23T01:11:06;58.50;45.30;29.70
42002;PMS7003;27693;50.506;30.832;2023-03-23T01:12:08;56.20;44.50;30.30
42002;PMS7003;27693;50.506;30.832;2023-03-23T01:13:10;58.10;45.40;29.90
42002;PMS7003;27693;50.506;30.832;2023-03-23T01:14:14;60.82;45.45;29.91
42002;PMS7003;27693;50.506;30.832;2023-03-23T01:15:17;58.40;45.20;28.90
42002;PMS7003;27693;50.506;30.832;2023-03-23T01:16:21;58.70;45.40;29.80
42002;PMS7003;27693;50.506;30.832;2023-03-23T01:17:23;51.67;41.67;29.22
42002;PMS7003;27693;50.506;30.832;2023-03-23T01:18:25;62.22;46.33;30.67
42002;PMS7003;27693;50.506;30.832;2023-03-23T01:19:26;61.56;46.56;30.67
42002;PMS7003;27693;50.506;30.832;2023-03-23T01:20:29;57.80;46.10;31.10
42002;PMS7003;27693;50.506;30.832;2023-03-23T01:21:32;58.00;44.50;29.80
42002;PMS7003;27693;50.506;30.832;2023-03-23T01:22:34;58.67;43.56;28.44
42002;PMS7003;27693;50.506;30.832;2023-03-23T01:23:36;60.40;47.40;30.60
42002;PMS7003;27693;50.506;30.832;2023-03-23T01:24:39;59.09;46.73;30.00
42002;PMS7003;27693;50.506;30.832;2023-03-23T01:25:41;60.00;47.10;31.60
42002;PMS7003;27693;50.506;30.832;2023-03-23T01:26:44;56.60;42.50;26.60
42002;PMS7003;27693;50.506;30.832;2023-03-23T01:27:46;55.67;43.78;28.89
42002;PMS7003;27693;50.506;30.832;2023-03-23T01:28:48;55.56;44.00;29.33
42002;PMS7003;27693;50.506;30.832;2023-03-23T01:29:49;55.00;42.11;28.33
42002;PMS7003;27693;50.506;30.832;2023-03-23T01:30:51;56.22;44.78;30.00
42002;PMS7003;27693;50.506;30.832;2023-03-23T01:31:53;57.33;43.78;28.89
42002;PMS7003;27693;50.506;30.832;2023-03-23T01:32:55;58.50;44.70;29.40
42002;PMS7003;27693;50.506;30.832;2023-03-23T01:33:58;60.40;44.80;30.00
42002;PMS7003;27693;50.506;30.832;2023-03-23T01:35:00;54.50;44.10;28.30
42002;PMS7003;27693;50.506;30.832;2023-03-23T01:36:03;58.80;45.90;29.70
42002;PMS7003;27693;50.506;30.832;2023-03-23T01:37:08;53.70;42.00;27.30
42002;PMS7003;27693;50.506;30.832;2023-03-23T01:38:10;56.50;44.20;29.10
42002;PMS7003;27693;50.506;30.832;2023-03-23T01:39:12;56.90;43.10;28.40
42002;PMS7003;27693;50.506;30.832;2023-03-23T01:40:14;53.78;42.67;27.89
42002;PMS7003;27693;50.506;30.832;2023-03-23T01:41:18;55.90;43.30;28.70
42002;PMS7003;27693;50.506;30.832;2023-03-23T01:42:22;53.20;43.10;29.90
42002;PMS7003;27693;50.506;30.832;2023-03-23T01:43:30;58.00;44.20;27.90
42002;PMS7003;27693;50.506;30.832;2023-03-23T01:45:42;53.40;41.40;28.30
42002;PMS7003;27693;50.506;30.832;2023-03-23T01:46:45;54.40;43.70;29.40
42002;PMS7003;27693;50.506;30.832;2023-03-23T01:49:19;52.30;38.80;23.70
42002;PMS7003;27693;50.506;30.832;2023-03-23T01:50:27;55.70;44.50;30.00
42002;PMS7003;27693;50.506;30.832;2023-03-23T01:51:31;52.90;41.50;26.50
42002;PMS7003;27693;50.506;30.832;2023-03-23T01:52:35;55.20;44.40;29.20
42002;PMS7003;27693;50.506;30.832;2023-03-23T01:53:45;58.40;45.10;29.70
42002;PMS7003;27693;50.506;30.832;2023-03-23T01:54:47;54.80;43.00;28.60
42002;PMS7003;27693;50.506;30.832;2023-03-23T01:55:51;57.50;44.00;28.90
42002;PMS7003;27693;50.506;30.832;2023-03-23T01:57:01;52.20;41.90;28.60
42002;PMS7003;27693;50.506;30.832;2023-03-23T01:58:08;54.90;43.10;28.50
42002;PMS7003;27693;50.506;30.832;2023-03-23T01:59:12;55.10;42.80;28.00
42002;PMS7003;27693;50.506;30.832;2023-03-23T02:00:16;49.70;39.70;27.90
42002;PMS7003;27693;50.506;30.832;2023-03-23T02:01:21;51.50;41.70;27.70
42002;PMS7003;27693;50.506;30.832;2023-03-23T02:02:26;50.30;40.10;27.50
42002;PMS7003;27693;50.506;30.832;2023-03-23T02:03:30;55.40;42.60;28.00
42002;PMS7003;27693;50.506;30.832;2023-03-23T02:04:34;50.30;38.00;24.40
42002;PMS7003;27693;50.506;30.832;2023-03-23T02:05:37;53.80;42.40;28.70
42002;PMS7003;27693;50.506;30.832;2023-03-23T02:06:52;54.10;41.60;28.10
42002;PMS7003;27693;50.506;30.832;2023-03-23T02:07:58;52.89;41.78;26.67
42002;PMS7003;27693;50.506;30.832;2023-03-23T02:09:06;54.80;43.30;28.80
42002;PMS7003;27693;50.506;30.832;2023-03-23T02:10:09;51.00;39.30;27.20
42002;PMS7003;27693;50.506;30.832;2023-03-23T02:11:15;56.64;43.91;28.36
42002;PMS7003;27693;50.506;30.832;2023-03-23T02:12:18;53.30;42.60;28.10
42002;PMS7003;27693;50.506;30.832;2023-03-23T02:13:21;52.60;40.90;27.60
42002;PMS7003;27693;50.506;30.832;2023-03-23T02:14:24;53.70;42.50;28.00
42002;PMS7003;27693;50.506;30.832;2023-03-23T02:15:32;50.60;40.60;27.80
42002;PMS7003;27693;50.506;30.832;2023-03-23T02:16:44;54.60;42.30;28.10
42002;PMS7003;27693;50.506;30.832;2023-03-23T02:18:16;51.30;40.90;28.00
42002;PMS7003;27693;50.506;30.832;2023-03-23T02:27:17;51.20;40.50;27.50
42002;PMS7003;27693;50.506;30.832;2023-03-23T02:28:53;52.50;40.80;27.70
42002;PMS7003;27693;50.506;30.832;2023-03-23T02:31:25;48.90;39.30;25.20
42002;PMS7003;27693;50.506;30.832;2023-03-23T02:34:20;50.10;39.60;25.80
42002;PMS7003;27693;50.506;30.832;2023-03-23T02:35:52;49.10;39.70;27.30
42002;PMS7003;27693;50.506;30.832;2023-03-23T02:37:58;48.60;39.00;27.00
42002;PMS7003;27693;50.506;30.832;2023-03-23T02:39:08;50.80;39.60;27.60
42002;PMS7003;27693;50.506;30.832;2023-03-23T02:40:21;47.80;38.60;26.90
42002;PMS7003;27693;50.506;30.832;2023-03-23T02:41:28;45.30;36.60;26.80
42002;PMS7003;27693;50.506;30.832;2023-03-23T02:42:32;49.70;39.70;27.80
42002;PMS7003;27693;50.506;30.832;2023-03-23T02:43:38;51.30;39.40;26.30
42002;PMS7003;27693;50.506;30.832;2023-03-23T02:44:45;47.30;38.20;25.50
42002;PMS7003;27693;50.506;30.832;2023-03-23T02:45:50;39.30;32.20;18.90
42002;PMS7003;27693;50.506;30.832;2023-03-23T02:46:55;49.30;39.70;27.00
42002;PMS7003;27693;50.506;30.832;2023-03-23T02:47:59;49.90;40.00;26.40
42002;PMS7003;27693;50.506;30.832;2023-03-23T02:49:03;46.90;38.40;26.60
42002;PMS7003;27693;50.506;30.832;2023-03-23T02:50:10;52.10;40.00;27.50
42002;PMS7003;27693;50.506;30.832;2023-03-23T02:51:15;50.50;40.00;26.90
42002;PMS7003;27693;50.506;30.832;2023-03-23T02:52:19;52.10;40.60;27.20
42002;PMS7003;27693;50.506;30.832;2023-03-23T02:53:24;48.40;39.40;27.30
42002;PMS7003;27693;50.506;30.832;2023-03-23T02:54:29;50.00;39.00;26.50
42002;PMS7003;27693;50.506;30.832;2023-03-23T02:55:31;51.09;40.73;27.09
42002;PMS7003;27693;50.506;30.832;2023-03-23T02:56:36;49.60;38.60;26.70
42002;PMS7003;27693;50.506;30.832;2023-03-23T02:57:44;48.40;39.80;27.00
42002;PMS7003;27693;50.506;30.832;2023-03-23T02:58:48;50.80;40.00;27.10
42002;PMS7003;27693;50.506;30.832;2023-03-23T02:59:51;49.80;40.70;26.80
42002;PMS7003;27693;50.506;30.832;2023-03-23T03:00:53;51.30;41.00;27.60
42002;PMS7003;27693;50.506;30.832;2023-03-23T03:01:59;53.20;43.10;28.50
42002;PMS7003;27693;50.506;30.832;2023-03-23T03:03:04;50.10;40.60;26.80
42002;PMS7003;27693;50.506;30.832;2023-03-23T03:04:13;48.50;39.20;26.70
42002;PMS7003;27693;50.506;30.832;2023-03-23T03:05:21;47.90;39.60;26.50
42002;PMS7003;27693;50.506;30.832;2023-03-23T03:08:50;50.80;39.30;26.70
42002;PMS7003;27693;50.506;30.832;2023-03-23T03:11:29;45.60;37.50;24.70
42002;PMS7003;27693;50.506;30.832;2023-03-23T03:12:41;46.70;37.90;25.70
42002;PMS7003;27693;50.506;30.832;2023-03-23T03:17:25;49.20;36.60;24.10
42002;PMS7003;27693;50.506;30.832;2023-03-23T03:19:39;46.80;36.30;23.80
42002;PMS7003;27693;50.506;30.832;2023-03-23T03:20:45;48.80;39.10;27.70
42002;PMS7003;27693;50.506;30.832;2023-03-23T03:21:50;50.40;40.50;28.30
42002;PMS7003;27693;50.506;30.832;2023-03-23T03:22:55;53.50;40.70;27.80
42002;PMS7003;27693;50.506;30.832;2023-03-23T03:24:00;47.90;38.90;25.20
42002;PMS7003;27693;50.506;30.832;2023-03-23T03:25:05;46.40;36.30;25.90
42002;PMS7003;27693;50.506;30.832;2023-03-23T03:26:09;51.30;41.50;27.70
42002;PMS7003;27693;50.506;30.832;2023-03-23T03:27:18;52.80;41.50;28.10
42002;PMS7003;27693;50.506;30.832;2023-03-23T03:28:25;53.30;40.70;27.00
42002;PMS7003;27693;50.506;30.832;2023-03-23T03:29:30;52.30;41.30;27.50
42002;PMS7003;27693;50.506;30.832;2023-03-23T03:30:35;51.90;40.60;27.50
42002;PMS7003;27693;50.506;30.832;2023-03-23T03:31:39;50.60;41.30;28.60
42002;PMS7003;27693;50.506;30.832;2023-03-23T03:32:51;50.00;41.20;27.60
42002;PMS7003;27693;50.506;30.832;2023-03-23T03:33:52;52.20;40.70;27.00
42002;PMS7003;27693;50.506;30.832;2023-03-23T03:34:55;45.90;36.50;24.40
42002;PMS7003;27693;50.506;30.832;2023-03-23T03:35:57;52.44;42.11;28.33
42002;PMS7003;27693;50.506;30.832;2023-03-23T03:37:02;46.30;37.90;24.70
42002;PMS7003;27693;50.506;30.832;2023-03-23T03:38:08;51.00;41.60;28.30
42002;PMS7003;27693;50.506;30.832;2023-03-23T03:39:13;51.30;41.50;28.30
42002;PMS7003;27693;50.506;30.832;2023-03-23T03:40:20;46.20;36.20;23.30
42002;PMS7003;27693;50.506;30.832;2023-03-23T03:41:24;51.10;42.10;28.60
42002;PMS7003;27693;50.506;30.832;2023-03-23T03:42:26;51.56;40.56;29.56
42002;PMS7003;27693;50.506;30.832;2023-03-23T03:43:28;50.20;42.20;28.80
42002;PMS7003;27693;50.506;30.832;2023-03-23T03:44:31;51.30;40.10;27.80
42002;PMS7003;27693;50.506;30.832;2023-03-23T03:45:34;53.64;41.00;28.27
42002;PMS7003;27693;50.506;30.832;2023-03-23T03:46:36;53.20;42.30;28.20
42002;PMS7003;27693;50.506;30.832;2023-03-23T03:47:38;55.33;43.11;29.56
42002;PMS7003;27693;50.506;30.832;2023-03-23T03:48:40;54.70;41.30;28.30
42002;PMS7003;27693;50.506;30.832;2023-03-23T03:49:42;50.22;41.00;26.78
42002;PMS7003;27693;50.506;30.832;2023-03-23T03:50:44;52.56;41.56;28.67
42002;PMS7003;27693;50.506;30.832;2023-03-23T03:51:47;52.10;42.20;27.90
42002;PMS7003;27693;50.506;30.832;2023-03-23T03:52:50;52.30;42.50;28.80
42002;PMS7003;27693;50.506;30.832;2023-03-23T03:53:52;56.44;45.89;29.89
42002;PMS7003;27693;50.506;30.832;2023-03-23T03:54:54;55.10;42.10;28.00
42002;PMS7003;27693;50.506;30.832;2023-03-23T03:55:57;40.40;34.30;26.40
42002;PMS7003;27693;50.506;30.832;2023-03-23T03:57:03;54.00;42.90;27.70
42002;PMS7003;27693;50.506;30.832;2023-03-23T03:58:12;53.90;43.30;28.30
42002;PMS7003;27693;50.506;30.832;2023-03-23T03:59:33;57.20;44.10;29.50
42002;PMS7003;27693;50.506;30.832;2023-03-23T04:00:37;57.10;44.60;30.10
42002;PMS7003;27693;50.506;30.832;2023-03-23T04:01:41;56.10;44.50;29.90
42002;PMS7003;27693;50.506;30.832;2023-03-23T04:02:47;53.56;41.89;28.89
42002;PMS7003;27693;50.506;30.832;2023-03-23T04:04:14;54.60;44.10;28.50
42002;PMS7003;27693;50.506;30.832;2023-03-23T04:05:17;50.90;41.00;28.30
42002;PMS7003;27693;50.506;30.832;2023-03-23T04:06:22;56.30;43.20;28.20
42002;PMS7003;27693;50.506;30.832;2023-03-23T04:07:26;52.40;41.00;26.50
42002;PMS7003;27693;50.506;30.832;2023-03-23T04:08:30;49.90;39.70;26.40
42002;PMS7003;27693;50.506;30.832;2023-03-23T04:09:33;57.10;44.90;28.90
42002;PMS7003;27693;50.506;30.832;2023-03-23T04:10:35;56.90;44.30;29.70
42002;PMS7003;27693;50.506;30.832;2023-03-23T04:11:36;54.78;43.78;29.33
42002;PMS7003;27693;50.506;30.832;2023-03-23T04:12:43;58.30;44.70;29.80
42002;PMS7003;27693;50.506;30.832;2023-03-23T04:13:56;53.90;42.80;28.60
42002;PMS7003;27693;50.506;30.832;2023-03-23T04:14:59;56.80;43.80;29.90
42002;PMS7003;27693;50.506;30.832;2023-03-23T04:16:03;56.70;43.50;28.80
42002;PMS7003;27693;50.506;30.832;2023-03-23T04:17:06;48.20;39.70;24.70
42002;PMS7003;27693;50.506;30.832;2023-03-23T04:18:11;54.30;43.70;29.30
42002;PMS7003;27693;50.506;30.832;2023-03-23T04:19:16;60.10;45.90;30.00
42002;PMS7003;27693;50.506;30.832;2023-03-23T04:20:20;54.30;41.90;26.50
42002;PMS7003;27693;50.506;30.832;2023-03-23T04:21:23;50.90;40.20;27.80
42002;PMS7003;27693;50.506;30.832;2023-03-23T04:22:28;55.30;43.40;28.70
42002;PMS7003;27693;50.506;30.832;2023-03-23T04:23:34;56.70;45.30;29.40
42002;PMS7003;27693;50.506;30.832;2023-03-23T04:24:38;57.80;45.60;29.90
42002;PMS7003;27693;50.506;30.832;2023-03-23T04:25:41;54.40;42.10;27.40
42002;PMS7003;27693;50.506;30.832;2023-03-23T04:26:45;52.90;42.30;28.50
42002;PMS7003;27693;50.506;30.832;2023-03-23T04:27:49;55.00;44.00;29.50
42002;PMS7003;27693;50.506;30.832;2023-03-23T04:29:00;56.40;43.20;28.50
42002;PMS7003;27693;50.506;30.832;2023-03-23T04:30:11;55.90;44.20;29.90
42002;PMS7003;27693;50.506;30.832;2023-03-23T04:31:16;58.00;44.50;29.60
42002;PMS7003;27693;50.506;30.832;2023-03-23T04:32:19;55.80;43.30;28.30
42002;PMS7003;27693;50.506;30.832;2023-03-23T04:33:25;57.00;43.20;28.60
42002;PMS7003;27693;50.506;30.832;2023-03-23T04:34:28;52.50;43.40;29.00
42002;PMS7003;27693;50.506;30.832;2023-03-23T04:35:32;56.40;44.80;29.10
42002;PMS7003;27693;50.506;30.832;2023-03-23T04:36:45;54.10;43.00;29.00
42002;PMS7003;27693;50.506;30.832;2023-03-23T04:37:51;54.40;43.00;28.60
42002;PMS7003;27693;50.506;30.832;2023-03-23T04:38:55;58.10;44.20;29.60
42002;PMS7003;27693;50.506;30.832;2023-03-23T04:39:58;54.30;42.60;28.80
42002;PMS7003;27693;50.506;30.832;2023-03-23T04:41:05;54.80;42.70;28.30
42002;PMS7003;27693;50.506;30.832;2023-03-23T04:42:15;52.30;42.20;28.30
42002;PMS7003;27693;50.506;30.832;2023-03-23T04:43:22;54.30;43.40;28.30
42002;PMS7003;27693;50.506;30.832;2023-03-23T04:44:42;53.10;39.90;26.40
42002;PMS7003;27693;50.506;30.832;2023-03-23T04:45:47;51.90;41.20;27.50
42002;PMS7003;27693;50.506;30.832;2023-03-23T04:47:03;56.90;43.80;28.50
42002;PMS7003;27693;50.506;30.832;2023-03-23T04:48:04;53.50;43.60;29.50
42002;PMS7003;27693;50.506;30.832;2023-03-23T04:49:09;56.70;44.30;29.80
42002;PMS7003;27693;50.506;30.832;2023-03-23T04:50:13;57.50;45.30;29.70
42002;PMS7003;27693;50.506;30.832;2023-03-23T04:51:15;52.60;42.30;28.90
42002;PMS7003;27693;50.506;30.832;2023-03-23T04:52:19;54.40;42.90;29.50
42002;PMS7003;27693;50.506;30.832;2023-03-23T04:53:26;55.30;43.00;29.70
42002;PMS7003;27693;50.506;30.832;2023-03-23T04:54:28;52.44;41.67;28.22
42002;PMS7003;27693;50.506;30.832;2023-03-23T04:55:32;56.40;44.10;29.70
42002;PMS7003;27693;50.506;30.832;2023-03-23T04:56:41;61.60;46.50;30.70
42002;PMS7003;27693;50.506;30.832;2023-03-23T04:57:46;52.80;43.40;28.70
42002;PMS7003;27693;50.506;30.832;2023-03-23T04:58:52;58.80;45.40;28.90
42002;PMS7003;27693;50.506;30.832;2023-03-23T04:59:59;60.80;44.30;30.10
42002;PMS7003;27693;50.506;30.832;2023-03-23T05:01:03;58.80;46.90;30.90
42002;PMS7003;27693;50.506;30.832;2023-03-23T05:02:08;47.50;38.60;23.50
42002;PMS7003;27693;50.506;30.832;2023-03-23T05:03:12;58.30;44.60;29.70
42002;PMS7003;27693;50.506;30.832;2023-03-23T05:04:15;56.90;44.60;29.60
42002;PMS7003;27693;50.506;30.832;2023-03-23T05:05:19;54.20;41.70;27.80
42002;PMS7003;27693;50.506;30.832;2023-03-23T05:06:23;60.90;46.80;31.20
42002;PMS7003;27693;50.506;30.832;2023-03-23T05:07:27;57.00;45.30;29.90
42002;PMS7003;27693;50.506;30.832;2023-03-23T05:08:31;53.30;42.60;29.90
42002;PMS7003;27693;50.506;30.832;2023-03-23T05:09:34;56.10;44.70;30.10
42002;PMS7003;27693;50.506;30.832;2023-03-23T05:10:37;56.30;45.40;30.80
42002;PMS7003;27693;50.506;30.832;2023-03-23T05:11:41;58.60;45.70;31.10
42002;PMS7003;27693;50.506;30.832;2023-03-23T05:12:43;55.67;45.11;30.22
42002;PMS7003;27693;50.506;30.832;2023-03-23T05:13:46;62.10;47.80;31.20
42002;PMS7003;27693;50.506;30.832;2023-03-23T05:14:48;61.56;46.89;31.56
42002;PMS7003;27693;50.506;30.832;2023-03-23T05:15:52;59.00;46.80;31.30
42002;PMS7003;27693;50.506;30.832;2023-03-23T05:16:54;56.30;44.20;29.30
42002;PMS7003;27693;50.506;30.832;2023-03-23T05:17:57;57.80;45.40;31.00
42002;PMS7003;27693;50.506;30.832;2023-03-23T05:18:59;56.40;44.70;30.60
42002;PMS7003;27693;50.506;30.832;2023-03-23T05:20:02;53.80;43.30;28.90
42002;PMS7003;27693;50.506;30.832;2023-03-23T05:21:15;58.70;46.90;31.40
42002;PMS7003;27693;50.506;30.832;2023-03-23T05:22:19;58.20;46.20;31.00
42002;PMS7003;27693;50.506;30.832;2023-03-23T05:23:23;53.50;41.90;29.60
42002;PMS7003;27693;50.506;30.832;2023-03-23T05:24:27;62.10;47.90;32.00
42002;PMS7003;27693;50.506;30.832;2023-03-23T05:25:34;58.40;45.50;30.60
42002;PMS7003;27693;50.506;30.832;2023-03-23T05:26:42;60.60;47.30;32.10
42002;PMS7003;27693;50.506;30.832;2023-03-23T05:27:46;58.50;45.70;30.90
42002;PMS7003;27693;50.506;30.832;2023-03-23T05:28:55;58.30;45.60;30.70
42002;PMS7003;27693;50.506;30.832;2023-03-23T05:29:59;57.40;45.00;30.90
42002;PMS7003;27693;50.506;30.832;2023-03-23T05:31:03;56.30;44.20;30.90
42002;PMS7003;27693;50.506;30.832;2023-03-23T05:32:07;56.10;43.80;29.70
42002;PMS7003;27693;50.506;30.832;2023-03-23T05:33:10;56.30;45.10;30.20
42002;PMS7003;27693;50.506;30.832;2023-03-23T05:34:17;58.70;45.90;30.90
42002;PMS7003;27693;50.506;30.832;2023-03-23T05:35:23;60.10;46.60;31.80
42002;PMS7003;27693;50.506;30.832;2023-03-23T05:36:26;59.00;46.64;31.45
42002;PMS7003;27693;50.506;30.832;2023-03-23T05:37:47;59.60;45.50;30.50
42002;PMS7003;27693;50.506;30.832;2023-03-23T05:38:52;54.10;42.30;26.70
42002;PMS7003;27693;50.506;30.832;2023-03-23T05:39:54;53.60;42.30;29.30
42002;PMS7003;27693;50.506;30.832;2023-03-23T05:41:01;60.20;46.90;31.30
42002;PMS7003;27693;50.506;30.832;2023-03-23T05:42:05;60.10;46.70;31.20
42002;PMS7003;27693;50.506;30.832;2023-03-23T05:43:27;52.30;40.40;28.30
42002;PMS7003;27693;50.506;30.832;2023-03-23T05:44:43;60.40;45.90;31.20
42002;PMS7003;27693;50.506;30.832;2023-03-23T05:45:46;58.70;46.10;31.20
42002;PMS7003;27693;50.506;30.832;2023-03-23T05:46:48;59.10;47.00;31.30
42002;PMS7003;27693;50.506;30.832;2023-03-23T05:47:51;57.40;44.00;28.20
42002;PMS7003;27693;50.506;30.832;2023-03-23T05:48:55;58.90;47.00;30.90
42002;PMS7003;27693;50.506;30.832;2023-03-23T05:49:58;63.60;48.00;32.30
42002;PMS7003;27693;50.506;30.832;2023-03-23T05:51:03;59.60;46.40;31.60
42002;PMS7003;27693;50.506;30.832;2023-03-23T05:52:05;57.50;46.10;31.60
42002;PMS7003;27693;50.506;30.832;2023-03-23T05:53:07;62.44;48.00;32.56
42002;PMS7003;27693;50.506;30.832;2023-03-23T05:54:11;59.20;46.00;30.50
42002;PMS7003;27693;50.506;30.832;2023-03-23T05:55:16;58.80;45.90;29.90
42002;PMS7003;27693;50.506;30.832;2023-03-23T05:56:20;62.20;46.50;31.20
42002;PMS7003;27693;50.506;30.832;2023-03-23T05:57:36;59.50;46.30;31.30
42002;PMS7003;27693;50.506;30.832;2023-03-23T05:58:49;58.40;47.00;31.40
42002;PMS7003;27693;50.506;30.832;2023-03-23T05:59:51;61.40;48.20;32.40
42002;PMS7003;27693;50.506;30.832;2023-03-23T06:00:55;58.00;48.30;32.70
42002;PMS7003;27693;50.506;30.832;2023-03-23T06:01:59;66.70;49.80;33.30
42002;PMS7003;27693;50.506;30.832;2023-03-23T06:03:01;67.10;50.50;33.90
42002;PMS7003;27693;50.506;30.832;2023-03-23T06:04:06;67.20;51.30;33.90
42002;PMS7003;27693;50.506;30.832;2023-03-23T06:05:13;71.40;55.10;36.30
42002;PMS7003;27693;50.506;30.832;2023-03-23T06:06:17;67.80;52.60;35.60
42002;PMS7003;27693;50.506;30.832;2023-03-23T06:07:27;68.00;53.10;36.60
42002;PMS7003;27693;50.506;30.832;2023-03-23T06:08:28;60.50;46.00;31.20
42002;PMS7003;27693;50.506;30.832;2023-03-23T06:09:32;62.00;47.80;32.40
42002;PMS7003;27693;50.506;30.832;2023-03-23T06:10:42;64.00;49.40;33.20
42002;PMS7003;27693;50.506;30.832;2023-03-23T06:11:46;59.30;46.40;32.50
42002;PMS7003;27693;50.506;30.832;2023-03-23T06:12:56;56.60;43.30;28.50
42002;PMS7003;27693;50.506;30.832;2023-03-23T06:14:06;59.00;46.40;31.10
42002;PMS7003;27693;50.506;30.832;2023-03-23T06:15:09;61.82;48.55;31.73
42002;PMS7003;27693;50.506;30.832;2023-03-23T06:16:31;61.60;47.60;31.50
42002;PMS7003;27693;50.506;30.832;2023-03-23T06:17:35;62.30;47.90;32.60
42002;PMS7003;27693;50.506;30.832;2023-03-23T06:18:38;59.40;46.70;31.80
42002;PMS7003;27693;50.506;30.832;2023-03-23T06:19:55;58.50;46.00;30.70
42002;PMS7003;27693;50.506;30.832;2023-03-23T06:20:57;59.56;46.11;31.11
42002;PMS7003;27693;50.506;30.832;2023-03-23T06:22:04;61.70;47.80;32.20
42002;PMS7003;27693;50.506;30.832;2023-03-23T06:23:18;57.90;44.70;30.60